Time;durP1;ratioP1;P1;durP2;ratioP2;P2;SDS_P1;SDS_P2;PMS_P1;PMS_P2;Temp;Humidity;BMP_temperature;BMP_pressure;BME280_temperature;BME280_humidity;BME280_pressure;Samples;Min_cycle;Max_cycle;Signal;HPM_P1;HPM_P2
2022/01/28 00:00:35;;;;;;;5.10;4.00;;;1.70;99.90;;;2.40;100.00;99339.56;5016497;28;20461;-74
2022/01/28 00:03:08;;;;;;;8.30;4.90;;;1.70;99.90;;;2.39;100.00;99346.50;5017127;28;20838;-74
2022/01/28 00:05:39;;;;;;;8.33;4.93;;;1.60;99.90;;;2.43;100.00;99347.94;5010955;28;20973;-74
2022/01/28 00:08:10;;;;;;;6.27;5.10;;;1.70;99.90;;;2.40;100.00;99344.72;5013975;28;20469;-74
2022/01/28 00:10:40;;;;;;;6.00;4.70;;;1.60;99.90;;;2.39;100.00;99336.19;5013527;28;20462;-74
2022/01/28 00:13:20;;;;;;;15.77;4.67;;;1.70;99.90;;;2.38;100.00;99342.28;5015139;28;20462;-74
2022/01/28 00:16:24;;;;;;;8.63;4.80;;;1.60;99.90;;;2.39;100.00;99332.78;5013408;28;20551;-74
2022/01/28 00:38:28;;;;;;;5.57;4.20;;;1.40;99.90;;;2.18;100.00;99362.59;5012903;28;20850;-74
2022/01/28 00:40:59;;;;;;;8.40;4.40;;;1.30;99.90;;;2.17;100.00;99366.94;5012334;28;21053;-74
2022/01/28 00:43:28;;;;;;;3.80;3.37;;;1.30;99.90;;;2.11;100.00;99369.91;5012487;28;20461;-74
2022/01/28 00:45:58;;;;;;;5.13;3.70;;;1.20;99.90;;;2.11;100.00;99369.91;5011449;28;20593;-74
2022/01/28 00:48:28;;;;;;;6.87;4.10;;;1.20;99.90;;;2.08;100.00;99383.03;5011757;28;21397;-73
2022/01/28 00:50:57;;;;;;;5.40;3.37;;;1.20;99.90;;;2.06;100.00;99382.28;5009978;28;20483;-74
2022/01/28 00:53:27;;;;;;;5.03;3.90;;;1.10;99.90;;;2.09;100.00;99379.50;5013808;28;20982;-74
2022/01/28 00:55:59;;;;;;;6.20;4.57;;;1.30;99.90;;;2.12;100.00;99394.75;5013005;28;20459;-74
2022/01/28 00:58:28;;;;;;;7.10;5.03;;;1.50;99.90;;;2.15;100.00;99389.44;5012656;28;20865;-74
2022/01/28 01:00:57;;;;;;;5.93;4.87;;;1.50;99.90;;;2.19;100.00;99403.75;5012728;28;21054;-74
2022/01/28 01:03:26;;;;;;;5.80;4.20;;;1.60;99.90;;;2.19;100.00;99408.91;5014904;28;20523;-74
2022/01/28 01:05:55;;;;;;;4.80;4.10;;;1.60;99.90;;;2.19;100.00;99410.66;5011640;28;21067;-74
2022/01/28 01:08:25;;;;;;;5.03;3.80;;;1.70;99.90;;;2.19;100.00;99421.81;5010269;28;20462;-74
2022/01/28 01:10:56;;;;;;;6.47;4.30;;;1.60;99.90;;;2.15;100.00;99420.38;5014013;28;20501;-73
2022/01/28 01:13:27;;;;;;;6.07;4.53;;;1.50;99.90;;;2.09;100.00;99420.78;5013245;28;20470;-74
2022/01/28 01:16:00;;;;;;;4.60;3.80;;;1.40;99.90;;;2.05;100.00;99427.03;5012198;28;20740;-73
2022/01/28 01:18:36;;;;;;;5.70;4.53;;;1.30;99.90;;;2.06;100.00;99443.34;5011696;28;20990;-74
2022/01/28 01:21:10;;;;;;;6.00;4.13;;;1.30;99.90;;;2.05;100.00;99444.31;5013509;28;20535;-74
2022/01/28 01:23:48;;;;;;;7.23;4.80;;;1.30;99.90;;;2.04;100.00;99446.06;5016939;28;21011;-74
2022/01/28 01:26:16;;;;;;;6.87;5.40;;;1.30;99.90;;;2.03;100.00;99444.38;5011922;28;20503;-74
2022/01/28 01:28:48;;;;;;;5.97;4.87;;;1.30;99.90;;;2.02;100.00;99453.03;5013692;28;20477;-74
2022/01/28 01:31:19;;;;;;;7.77;5.07;;;1.30;99.90;;;1.99;100.00;99461.81;5013507;28;20843;-74
2022/01/28 01:33:54;;;;;;;6.93;4.60;;;1.20;99.90;;;1.97;100.00;99468.00;5013015;28;20471;-73
2022/01/28 01:36:24;;;;;;;6.63;4.90;;;1.30;99.90;;;1.98;100.00;99459.31;5011271;28;20527;-74
2022/01/28 01:38:54;;;;;;;7.80;5.27;;;1.20;99.90;;;1.99;100.00;99458.41;5016095;28;21155;-74
2022/01/28 01:41:31;;;;;;;6.87;5.20;;;1.30;99.90;;;2.00;100.00;99472.97;5013721;28;20503;-74
2022/01/28 01:44:08;;;;;;;6.70;5.00;;;1.30;99.90;;;1.97;100.00;99468.84;5014605;28;20461;-74
2022/01/28 01:46:58;;;;;;;8.00;4.60;;;1.20;99.90;;;1.90;100.00;99471.91;5014686;28;20489;-74
2022/01/28 01:52:14;;;;;;;6.60;4.77;;;1.20;99.90;;;1.86;100.00;99470.44;5012707;28;21239;-74
2022/01/28 01:54:45;;;;;;;10.70;5.40;;;1.10;99.90;;;1.82;100.00;99474.94;5012026;28;20474;-74
2022/01/28 01:57:15;;;;;;;7.77;5.10;;;1.00;99.90;;;1.82;100.00;99474.13;5013295;28;20470;-74
2022/01/28 01:59:48;;;;;;;7.13;5.10;;;1.10;99.90;;;1.79;100.00;99482.88;5012809;28;20499;-74
2022/01/28 02:02:18;;;;;;;10.33;4.90;;;1.00;99.90;;;1.76;100.00;99493.41;5010860;28;20469;-74
2022/01/28 02:04:47;;;;;;;12.40;5.10;;;1.00;99.90;;;1.80;100.00;99496.59;5009461;28;20480;-74
2022/01/28 02:07:17;;;;;;;7.70;5.00;;;1.10;99.90;;;1.71;100.00;99497.16;5012668;28;20454;-74
2022/01/28 02:09:48;;;;;;;6.73;4.70;;;0.90;99.90;;;1.72;100.00;99496.25;5012740;28;20526;-73
2022/01/28 02:12:19;;;;;;;7.50;4.97;;;1.10;99.90;;;1.72;100.00;99491.94;5011904;28;20826;-73
2022/01/28 02:14:50;;;;;;;7.27;5.30;;;1.10;99.90;;;1.78;100.00;99501.00;5012973;28;20544;-74
2022/01/28 02:17:21;;;;;;;5.37;4.40;;;1.10;99.90;;;1.81;100.00;99503.41;5010277;28;21024;-74
2022/01/28 02:19:51;;;;;;;8.50;4.80;;;1.00;99.90;;;1.82;100.00;99502.47;5011206;28;20509;-74
2022/01/28 02:22:23;;;;;;;7.33;5.20;;;1.00;99.90;;;1.85;100.00;99505.69;5011094;28;21048;-75
2022/01/28 02:24:54;;;;;;;9.57;5.00;;;1.10;99.90;;;1.88;100.00;99502.09;5011257;28;20970;-74
2022/01/28 02:27:24;;;;;;;8.53;4.63;;;1.10;99.90;;;1.91;100.00;99507.06;5013499;28;20568;-74
2022/01/28 02:29:55;;;;;;;8.10;4.70;;;1.20;99.90;;;1.92;100.00;99503.56;5011995;28;20861;-74
2022/01/28 02:32:25;;;;;;;6.33;4.53;;;1.20;99.90;;;1.91;100.00;99497.56;5009506;28;20554;-74
2022/01/28 02:34:54;;;;;;;6.70;4.67;;;1.10;99.90;;;1.92;100.00;99501.81;5013560;28;20489;-74
2022/01/28 02:37:27;;;;;;;8.53;4.67;;;1.20;99.90;;;1.95;100.00;99496.44;5012092;28;20465;-74
2022/01/28 02:39:57;;;;;;;6.30;4.80;;;1.30;99.90;;;1.94;100.00;99501.72;5014612;28;20462;-74
2022/01/28 02:42:43;;;;;;;7.33;4.80;;;1.30;99.90;;;1.93;100.00;99502.63;5010066;28;20468;-73
2022/01/28 02:45:23;;;;;;;6.93;4.50;;;1.20;99.90;;;1.88;100.00;99510.66;5011189;28;20458;-74
2022/01/28 02:47:58;;;;;;;4.90;3.87;;;1.10;99.90;;;1.91;100.00;99501.88;5009566;28;20488;-74
2022/01/28 02:50:33;;;;;;;6.27;4.53;;;1.10;99.90;;;1.95;100.00;99500.78;5010634;28;20494;-74
2022/01/28 02:53:07;;;;;;;7.23;4.90;;;1.20;99.90;;;1.96;100.00;99486.97;5009941;28;20493;-74
2022/01/28 02:55:40;;;;;;;7.83;6.20;;;1.20;99.90;;;1.96;100.00;99484.38;5010683;28;20567;-74
2022/01/28 02:58:21;;;;;;;8.27;4.90;;;1.30;99.90;;;1.98;100.00;99482.53;5011204;28;20573;-74
2022/01/28 03:00:53;;;;;;;8.83;4.77;;;1.20;99.90;;;1.96;100.00;99492.97;5012056;28;20477;-74
2022/01/28 03:03:23;;;;;;;6.27;4.70;;;1.20;99.90;;;1.97;100.00;99502.38;5012488;28;20806;-74
2022/01/28 03:05:53;;;;;;;5.83;4.23;;;1.20;99.90;;;1.99;100.00;99502.25;5013191;28;20754;-74
2022/01/28 03:08:28;;;;;;;6.73;4.60;;;1.30;99.90;;;2.00;100.00;99509.06;5008621;28;20484;-73
2022/01/28 03:11:24;;;;;;;14.13;4.20;;;1.20;99.90;;;2.02;100.00;99496.88;5007366;28;20519;-74
2022/01/28 03:14:12;;;;;;;7.40;4.40;;;1.30;99.90;;;2.01;100.00;99508.97;5010682;28;20522;-74
2022/01/28 03:17:01;;;;;;;7.07;4.27;;;1.40;99.90;;;2.02;100.00;99502.06;5009984;28;20469;-74
2022/01/28 03:19:43;;;;;;;5.93;4.03;;;1.40;99.90;;;2.01;100.00;99505.56;5010976;28;20520;-74
2022/01/28 03:22:13;;;;;;;6.53;3.47;;;1.40;99.90;;;2.02;100.00;99508.03;5010240;28;20495;-74
2022/01/28 03:24:50;;;;;;;5.40;3.93;;;1.30;99.90;;;2.00;100.00;99509.06;5010830;28;22229;-74
2022/01/28 03:27:41;;;;;;;5.43;4.07;;;1.40;99.90;;;1.99;100.00;99507.41;5009713;28;20459;-73
2022/01/28 03:30:12;;;;;;;8.93;3.90;;;1.30;99.90;;;1.99;100.00;99510.81;5010949;28;21021;-74
2022/01/28 03:32:42;;;;;;;8.80;3.93;;;1.40;99.90;;;2.02;100.00;99513.19;5009455;28;21084;-74
2022/01/28 03:35:33;;;;;;;5.67;3.67;;;1.40;99.90;;;2.06;100.00;99519.00;5013259;28;20475;-74
2022/01/28 03:38:06;;;;;;;4.43;3.10;;;1.40;99.90;;;2.06;100.00;99523.31;5017701;28;20859;-73
2022/01/28 03:40:37;;;;;;;15.07;3.60;;;1.40;99.90;;;2.05;100.00;99516.53;5018283;28;20453;-74
2022/01/28 03:43:08;;;;;;;9.70;3.57;;;1.40;99.90;;;2.06;100.00;99519.00;5014945;28;20544;-74
2022/01/28 03:45:38;;;;;;;5.67;3.70;;;1.50;99.90;;;2.08;100.00;99534.38;5011982;28;20526;-74
2022/01/28 03:48:08;;;;;;;7.47;3.83;;;1.50;99.90;;;2.09;100.00;99536.03;5015074;28;20503;-74
2022/01/28 03:50:38;;;;;;;13.00;3.20;;;1.60;99.90;;;2.09;100.00;99542.00;5011860;28;20622;-74
2022/01/28 03:53:09;;;;;;;5.57;3.20;;;1.50;99.90;;;2.14;100.00;99541.72;5014235;28;20949;-73
2022/01/28 03:55:40;;;;;;;7.93;4.20;;;1.60;99.90;;;2.11;100.00;99550.50;5014855;28;20473;-75
2022/01/28 03:58:10;;;;;;;6.03;3.20;;;1.50;99.90;;;2.13;100.00;99540.91;5012661;28;20458;-74
2022/01/28 04:00:40;;;;;;;5.93;3.17;;;1.60;99.90;;;2.17;100.00;99546.69;5014629;28;20494;-74
2022/01/28 04:03:23;;;;;;;3.23;2.87;;;1.60;99.90;;;2.18;100.00;99553.50;5014480;28;20552;-74
2022/01/28 04:11:32;;;;;;;10.33;3.00;;;1.50;99.90;;;2.12;100.00;99552.13;5016256;28;20511;-75
2022/01/28 04:14:11;;;;;;;3.80;3.17;;;1.40;99.90;;;2.14;100.00;99563.19;5014489;28;20965;-74
2022/01/28 04:19:27;;;;;;;3.73;3.03;;;1.40;99.90;;;2.09;100.00;99574.72;5013073;28;20889;-74
2022/01/28 04:21:58;;;;;;;6.20;2.80;;;1.40;99.90;;;2.06;100.00;99574.91;5012786;28;20992;-74
2022/01/28 04:24:27;;;;;;;3.87;2.80;;;1.40;99.90;;;2.07;100.00;99586.88;5011212;28;20465;-75
2022/01/28 04:26:59;;;;;;;6.77;3.23;;;1.40;99.90;;;2.06;100.00;99586.06;5014840;28;21290;-74
2022/01/28 04:29:29;;;;;;;7.07;3.20;;;1.30;99.90;;;2.01;100.00;99596.66;5012234;28;21023;-74
2022/01/28 04:31:59;;;;;;;8.70;3.30;;;1.30;99.90;;;2.02;100.00;99589.75;5014061;28;20590;-74
2022/01/28 04:34:28;;;;;;;25.73;5.70;;;1.40;99.90;;;2.02;100.00;99600.06;5011293;28;20562;-77
2022/01/28 04:37:06;;;;;;;25.60;11.70;;;1.30;99.90;;;1.98;100.00;99593.44;5015132;28;20470;-74
2022/01/28 04:39:43;;;;;;;12.47;4.37;;;1.30;99.90;;;1.96;100.00;99606.44;5011870;28;20472;-74
2022/01/28 04:42:25;;;;;;;9.80;3.23;;;1.20;99.90;;;1.95;100.00;99617.66;5014726;28;20508;-74
2022/01/28 04:45:02;;;;;;;12.30;3.87;;;1.20;99.90;;;1.92;100.00;99610.13;5011905;28;20470;-74
2022/01/28 04:47:39;;;;;;;68.27;28.33;;;1.20;99.90;;;1.91;100.00;99617.94;5013827;28;20580;-74
2022/01/28 04:50:19;;;;;;;5.00;3.43;;;1.20;99.90;;;1.88;100.00;99615.56;5011185;28;20564;-74
2022/01/28 04:53:09;;;;;;;2.77;2.57;;;1.20;99.90;;;1.88;100.00;99629.28;5016223;28;21064;-74
2022/01/28 04:55:59;;;;;;;4.33;2.60;;;1.20;99.90;;;1.89;100.00;99630.94;5015690;28;20527;-74
2022/01/28 04:58:43;;;;;;;4.10;2.80;;;1.20;99.90;;;1.90;100.00;99624.88;5013686;28;20478;-74
2022/01/28 05:01:44;;;;;;;3.40;2.73;;;1.30;99.90;;;1.92;100.00;99627.34;5015089;28;20526;-74
2022/01/28 05:04:42;;;;;;;3.00;2.67;;;1.40;99.90;;;1.92;100.00;99619.59;5014437;28;20582;-74
2022/01/28 05:10:27;;;;;;;5.60;2.90;;;1.30;99.90;;;1.92;100.00;99629.94;4995868;28;20809;-76
2022/01/28 05:13:23;;;;;;;15.50;4.00;;;1.40;99.90;;;1.92;100.00;99624.75;5015180;28;20492;-73
2022/01/28 05:24:39;;;;;;;8.20;2.80;;;1.40;99.90;;;1.97;100.00;99643.38;4975851;28;20465;-73
2022/01/28 05:27:11;;;;;;;7.20;3.50;;;1.30;99.90;;;2.00;100.00;99645.78;5014613;28;20531;-72
2022/01/28 05:29:42;;;;;;;6.60;3.20;;;1.30;99.90;;;2.03;100.00;99653.31;5014022;28;20540;-73
2022/01/28 05:32:15;;;;;;;8.02;3.78;;;1.40;99.90;;;2.08;100.00;99651.31;5014688;28;20467;-73
2022/01/28 05:34:45;;;;;;;9.80;4.00;;;1.50;99.90;;;2.17;100.00;99661.03;5015572;28;20665;-73
2022/01/28 05:37:15;;;;;;;4.00;2.90;;;1.50;99.90;;;2.17;100.00;99655.88;5014232;28;20946;-73
2022/01/28 05:39:45;;;;;;;8.63;3.53;;;1.50;99.90;;;2.18;100.00;99654.97;5014373;28;20453;-73
2022/01/28 05:42:15;;;;;;;4.93;2.50;;;1.40;99.90;;;2.21;100.00;99659.94;5014437;28;20465;-72
2022/01/28 05:44:45;;;;;;;7.57;3.23;;;1.50;99.90;;;2.21;100.00;99656.53;5015993;28;20437;-73
2022/01/28 05:47:17;;;;;;;4.83;3.27;;;1.50;99.90;;;2.20;100.00;99665.19;5016284;28;20531;-73
2022/01/28 05:49:47;;;;;;;5.87;3.00;;;1.50;99.90;;;2.20;100.00;99663.44;5015011;28;20453;-73
2022/01/28 05:52:16;;;;;;;4.27;2.63;;;1.50;99.90;;;2.17;100.00;99662.78;5014892;28;20883;-72
2022/01/28 05:54:46;;;;;;;3.60;2.20;;;1.50;99.90;;;2.17;100.00;99661.03;5015003;28;20509;-73
2022/01/28 05:57:16;;;;;;;4.00;2.70;;;1.40;99.90;;;2.17;100.00;99660.22;5016276;28;20447;-73
2022/01/28 05:59:45;;;;;;;5.43;2.80;;;1.50;99.90;;;2.15;100.00;99659.50;5015250;28;20548;-73
2022/01/28 06:02:18;;;;;;;6.43;3.03;;;1.60;99.90;;;2.10;100.00;99652.03;5014903;28;20462;-72
2022/01/28 06:04:49;;;;;;;5.03;3.03;;;1.40;99.90;;;2.03;100.00;99658.47;5015503;28;20961;-73
2022/01/28 06:07:20;;;;;;;4.97;2.70;;;1.40;99.90;;;2.01;100.00;99662.91;5015801;28;20950;-73
2022/01/28 06:09:50;;;;;;;3.67;2.90;;;1.40;99.90;;;1.93;100.00;99667.69;5016071;28;21001;-73
2022/01/28 06:12:21;;;;;;;7.03;2.50;;;1.30;99.90;;;1.93;100.00;99667.69;5013620;28;20494;-73
2022/01/28 06:14:50;;;;;;;3.30;2.40;;;1.20;99.90;;;1.87;100.00;99668.91;5011904;28;20553;-73
2022/01/28 06:17:22;;;;;;;3.50;2.60;;;1.10;99.90;;;1.82;100.00;99680.41;5016283;28;20450;-73
2022/01/28 06:19:52;;;;;;;8.33;3.00;;;1.00;99.90;;;1.73;100.00;99675.81;5018093;28;20541;-73
2022/01/28 06:22:22;;;;;;;4.33;2.67;;;1.00;99.90;;;1.73;100.00;99676.63;5015459;28;20549;-73
2022/01/28 06:24:53;;;;;;;3.93;2.30;;;0.90;99.90;;;1.73;100.00;99666.31;5013990;28;20902;-72
2022/01/28 06:27:22;;;;;;;7.50;2.50;;;1.00;99.90;;;1.71;100.00;99678.47;5015294;28;21004;-72
2022/01/28 06:29:52;;;;;;;3.50;2.50;;;1.00;99.90;;;1.70;100.00;99676.00;5017449;28;20501;-72
2022/01/28 06:32:23;;;;;;;4.87;2.30;;;1.00;99.90;;;1.66;100.00;99679.66;5018883;28;20916;-73
2022/01/28 06:34:53;;;;;;;4.50;2.30;;;1.00;99.90;;;1.65;100.00;99675.41;5016844;28;20972;-73
2022/01/28 06:37:23;;;;;;;4.03;2.20;;;1.00;99.90;;;1.59;100.00;99679.19;5019169;28;20447;-72
2022/01/28 06:39:54;;;;;;;5.10;2.80;;;0.80;99.90;;;1.57;100.00;99691.34;5016132;28;20510;-72
2022/01/28 06:42:24;;;;;;;8.00;2.93;;;0.80;99.90;;;1.55;100.00;99698.34;5015947;28;20510;-73
2022/01/28 06:44:54;;;;;;;8.70;3.10;;;0.70;99.90;;;1.57;100.00;99704.22;5017046;28;20468;-72
2022/01/28 06:47:26;;;;;;;4.73;3.23;;;0.90;99.90;;;1.56;100.00;99699.16;5017606;28;20506;-72
2022/01/28 06:49:56;;;;;;;7.10;3.20;;;0.80;99.90;;;1.58;100.00;99703.31;5018396;28;21034;-72
2022/01/28 06:52:25;;;;;;;9.53;4.83;;;1.00;99.90;;;1.61;100.00;99707.44;5018878;28;20479;-73
2022/01/28 06:54:55;;;;;;;7.13;4.03;;;0.90;99.90;;;1.59;100.00;99704.16;5017803;28;20466;-73
2022/01/28 06:57:25;;;;;;;8.60;4.67;;;0.90;99.90;;;1.61;100.00;99708.28;5018166;28;20823;-72
2022/01/28 06:59:54;;;;;;;6.97;4.50;;;0.90;99.90;;;1.63;100.00;99710.78;5018333;28;20563;-72
2022/01/28 07:02:26;;;;;;;10.07;4.90;;;0.90;99.90;;;1.65;100.00;99727.81;5018015;28;20463;-72
2022/01/28 07:04:55;;;;;;;9.93;5.10;;;0.90;99.90;;;1.68;100.00;99735.38;5017720;28;20520;-72
2022/01/28 07:07:26;;;;;;;10.37;4.40;;;1.00;99.90;;;1.69;100.00;99751.66;5018570;28;20553;-73
2022/01/28 07:09:56;;;;;;;10.43;4.50;;;1.00;99.90;;;1.70;100.00;99748.19;5020562;28;20846;-73
2022/01/28 07:12:26;;;;;;;8.57;5.27;;;1.00;99.90;;;1.71;100.00;99744.66;5020784;28;20527;-73
2022/01/28 07:14:56;;;;;;;6.27;4.03;;;1.00;99.90;;;1.66;100.00;99747.53;5021810;28;20446;-72
2022/01/28 07:17:27;;;;;;;9.53;4.13;;;0.90;99.90;;;1.67;100.00;99753.47;5023228;28;20949;-73
2022/01/28 07:19:58;;;;;;;11.70;4.63;;;0.90;99.90;;;1.68;100.00;99758.56;5022520;28;20451;-73
2022/01/28 07:22:27;;;;;;;4.77;4.10;;;0.90;99.90;;;1.70;100.00;99761.06;5021400;28;20465;-73
2022/01/28 07:24:58;;;;;;;9.40;5.33;;;1.00;99.90;;;1.71;100.00;99755.81;5021276;28;20565;-72
2022/01/28 07:27:27;;;;;;;10.20;6.07;;;1.00;99.90;;;1.71;100.00;99760.13;5022312;28;20511;-73
2022/01/28 07:29:58;;;;;;;6.60;3.40;;;1.00;99.90;;;1.70;100.00;99761.88;5021340;28;20522;-73
2022/01/28 07:32:29;;;;;;;10.70;5.10;;;1.00;99.90;;;1.73;100.00;99773.78;5021609;28;20911;-72
2022/01/28 07:34:59;;;;;;;10.80;5.27;;;1.00;99.90;;;1.70;100.00;99773.97;5021860;28;20449;-72
2022/01/28 07:37:31;;;;;;;4.70;4.07;;;0.90;99.90;;;1.74;100.00;99770.25;5021827;28;20447;-72
2022/01/28 07:40:03;;;;;;;5.93;3.87;;;1.00;99.90;;;1.78;100.00;99776.91;5021636;28;20461;-72
2022/01/28 07:42:35;;;;;;;10.17;4.37;;;0.90;99.90;;;1.78;100.00;99776.91;5021589;28;20477;-73
2022/01/28 07:45:06;;;;;;;6.20;4.50;;;1.10;99.90;;;1.79;100.00;99784.56;5017776;28;20544;-73
2022/01/28 07:47:37;;;;;;;8.13;4.70;;;1.00;99.90;;;1.81;100.00;99784.47;5017421;28;20480;-73
2022/01/28 07:50:10;;;;;;;15.90;4.87;;;1.10;99.90;;;1.86;100.00;99787.63;5017586;28;20465;-72
2022/01/28 07:52:40;;;;;;;7.83;4.53;;;1.10;99.90;;;1.87;100.00;99797.03;5018523;28;20484;-72
2022/01/28 07:55:12;;;;;;;6.53;4.43;;;1.10;99.90;;;1.88;100.00;99796.91;5018478;28;21130;-72
2022/01/28 07:57:43;;;;;;;9.10;4.10;;;1.10;99.90;;;1.92;100.00;99806.13;5017664;28;20443;-72
2022/01/28 08:00:15;;;;;;;10.20;4.90;;;1.10;99.90;;;1.95;100.00;99815.44;5016657;28;20456;-73
2022/01/28 08:02:47;;;;;;;6.73;3.80;;;1.20;99.90;;;1.98;100.00;99818.66;5018156;28;20458;-73
2022/01/28 08:05:18;;;;;;;8.80;4.07;;;1.30;99.90;;;2.01;100.00;99835.75;5020161;28;20865;-72
2022/01/28 08:07:48;;;;;;;5.37;4.10;;;1.40;99.90;;;2.05;100.00;99824.28;5017198;28;20811;-72
2022/01/28 08:10:17;;;;;;;10.43;4.57;;;1.40;99.90;;;2.09;100.00;99818.03;5017813;28;20454;-72
2022/01/28 08:12:49;;;;;;;7.20;3.50;;;1.40;99.90;;;2.15;100.00;99817.69;5019407;28;20557;-72
2022/01/28 08:15:21;;;;;;;7.00;3.77;;;1.40;99.90;;;2.18;100.00;99822.69;5020642;28;20959;-72
2022/01/28 08:17:53;;;;;;;8.60;4.10;;;1.40;99.90;;;2.19;100.00;99814.00;5018738;28;21077;-72
2022/01/28 08:20:22;;;;;;;6.57;3.70;;;1.50;99.90;;;2.22;100.00;99824.13;5017989;28;20447;-72
2022/01/28 08:22:57;;;;;;;8.77;3.80;;;1.50;99.90;;;2.23;100.00;99820.63;5015851;28;20458;-72
2022/01/28 08:25:33;;;;;;;9.90;4.10;;;1.50;99.90;;;2.26;100.00;99825.63;5019655;28;20460;-73
2022/01/28 08:28:05;;;;;;;5.70;4.03;;;1.50;99.90;;;2.29;100.00;99824.63;5021234;28;20975;-73
2022/01/28 08:30:38;;;;;;;6.97;4.03;;;1.60;99.90;;;2.31;100.00;99828.75;5020672;28;20848;-73
2022/01/28 08:33:09;;;;;;;13.60;4.73;;;1.60;99.90;;;2.35;100.00;99835.41;5020740;28;20551;-73
2022/01/28 08:35:39;;;;;;;8.40;4.53;;;1.60;99.90;;;2.35;100.00;99835.41;5021136;28;20454;-73
2022/01/28 08:38:15;;;;;;;9.50;4.37;;;1.70;99.90;;;2.43;100.00;99847.88;5019493;28;20966;-72
2022/01/28 08:40:45;;;;;;;12.90;6.10;;;1.70;99.90;;;2.47;100.00;99851.91;5020563;28;20826;-73
2022/01/28 08:43:14;;;;;;;9.97;5.40;;;1.70;99.90;;;2.46;100.00;99843.31;5020127;28;20454;-73
2022/01/28 08:45:44;;;;;;;13.30;5.70;;;1.70;99.90;;;2.51;100.00;99855.97;5016336;28;21001;-72
2022/01/28 08:48:14;;;;;;;7.60;5.10;;;1.90;99.90;;;2.53;100.00;99860.09;5018661;28;20474;-73
2022/01/28 08:50:45;;;;;;;12.67;5.63;;;2.00;99.90;;;2.56;100.00;99860.88;5019721;28;20446;-73
2022/01/28 08:53:14;;;;;;;10.87;4.90;;;1.90;99.90;;;2.60;100.00;99870.94;5019924;28;20494;-73
2022/01/28 08:55:44;;;;;;;9.03;5.80;;;1.90;99.90;;;2.64;100.00;99874.97;5019197;28;20931;-73
2022/01/28 08:58:15;;;;;;;9.93;5.17;;;2.00;99.90;;;2.67;100.00;99871.38;5020345;28;20480;-73
2022/01/28 09:00:47;;;;;;;9.40;4.63;;;2.10;99.90;;;2.71;100.00;99875.44;5020374;28;20501;-72
2022/01/28 09:03:20;;;;;;;11.00;5.63;;;2.10;99.90;;;2.75;100.00;99879.47;5020880;28;20530;-73
2022/01/28 09:05:51;;;;;;;8.63;4.90;;;2.10;99.90;;;2.79;100.00;99875.78;5018705;28;20454;-73
2022/01/28 09:08:21;;;;;;;13.03;5.13;;;2.00;99.90;;;2.80;100.00;99885.22;5020137;28;20450;-73
2022/01/28 09:11:07;;;;;;;9.17;5.10;;;2.00;99.90;;;2.86;100.00;99882.25;5020407;28;20443;-72
2022/01/28 09:13:38;;;;;;;13.83;5.40;;;2.10;99.90;;;2.92;100.00;99879.28;5020985;28;20629;-73
2022/01/28 09:16:08;;;;;;;14.30;5.17;;;2.20;99.90;;;2.98;100.00;99871.19;5020567;28;20448;-72
2022/01/28 09:18:40;;;;;;;9.87;3.83;;;2.40;99.90;;;3.02;100.00;99882.97;5018979;28;20501;-72
2022/01/28 09:21:10;;;;;;;8.90;3.40;;;2.50;99.90;;;3.11;100.00;99887.59;5019087;28;20452;-72
2022/01/28 09:23:40;;;;;;;4.57;2.53;;;2.50;99.90;;;3.19;100.00;99875.03;5019237;28;20443;-73
2022/01/28 09:26:12;;;;;;;9.97;3.17;;;2.70;99.90;;;3.25;100.00;99886.72;5020655;28;21141;-72
2022/01/28 09:28:41;;;;;;;5.87;2.77;;;2.70;99.90;;;3.31;100.00;99887.16;5020233;28;20498;-72
2022/01/28 09:31:12;;;;;;;5.47;2.63;;;2.80;99.90;;;3.38;100.00;99890.19;5019162;28;20984;-72
2022/01/28 09:33:43;;;;;;;5.03;2.60;;;2.80;99.90;;;3.41;100.00;99880.50;5018288;28;20511;-72
2022/01/28 09:36:13;;;;;;;4.97;2.23;;;2.80;99.90;;;3.48;100.00;99889.53;5019740;28;20457;-72
2022/01/28 09:38:42;;;;;;;7.87;2.17;;;3.00;99.90;;;3.54;100.00;99881.38;5019399;28;20459;-72
2022/01/28 09:41:12;;;;;;;8.20;1.43;;;3.00;99.90;;;3.59;100.00;99888.00;5014024;28;21291;-73
2022/01/28 09:43:48;;;;;;;3.73;2.17;;;3.10;99.90;;;3.61;100.00;99896.53;5017949;28;20455;-73
2022/01/28 09:46:18;;;;;;;7.30;2.17;;;3.10;99.90;;;3.72;100.00;99899.22;5017347;28;20468;-73
2022/01/28 09:48:49;;;;;;;9.73;2.13;;;3.20;99.90;;;3.76;100.00;99901.53;5016649;28;20574;-72
2022/01/28 09:51:19;;;;;;;8.73;2.60;;;3.20;99.90;;;3.84;100.00;99894.13;5015238;28;20504;-73
2022/01/28 09:53:49;;;;;;;4.23;1.73;;;3.40;99.90;;;3.92;100.00;99896.22;5016320;28;20486;-73
2022/01/28 09:56:18;;;;;;;9.20;1.83;;;3.40;99.90;;;3.94;100.00;99900.34;5014874;28;20454;-72
2022/01/28 09:58:47;;;;;;;4.17;1.70;;;3.40;99.90;;;3.99;100.00;99902.66;5015871;28;20544;-72
2022/01/28 10:01:17;;;;;;;7.80;2.10;;;3.50;99.90;;;4.03;100.00;99912.69;5016643;28;20457;-73
2022/01/28 10:04:00;;;;;;;5.70;1.90;;;3.50;99.90;;;4.10;100.00;99905.34;5017232;28;20454;-72
2022/01/28 10:06:32;;;;;;;7.40;1.90;;;3.60;99.90;;;4.19;100.00;99902.19;5015168;28;20546;-73
2022/01/28 10:09:08;;;;;;;5.53;1.80;;;3.70;99.90;;;4.23;100.00;99900.22;5013565;28;20810;-73
2022/01/28 10:11:44;;;;;;;6.13;2.10;;;3.70;99.90;;;4.28;100.00;99905.91;5016465;28;20472;-77
2022/01/28 10:14:16;;;;;;;3.63;2.10;;;3.80;99.90;;;4.31;100.00;99897.94;5014522;28;20509;-73
2022/01/28 10:16:58;;;;;;;2.30;1.87;;;3.80;99.90;;;4.37;100.00;99897.53;5015624;28;20476;-73
2022/01/28 10:19:42;;;;;;;4.63;1.60;;;3.90;99.90;;;4.41;100.00;99909.34;5014933;28;20537;-73
2022/01/28 10:22:18;;;;;;;3.20;1.87;;;3.90;99.90;;;4.47;100.00;99909.78;5015643;28;20985;-73
2022/01/28 10:25:22;;;;;;;4.47;1.80;;;4.00;99.90;;;4.49;100.00;99913.09;5017428;28;20952;-73
2022/01/28 10:28:01;;;;;;;4.00;2.00;;;4.00;99.90;;;4.53;100.00;99908.53;5019423;28;20450;-73
2022/01/28 10:30:36;;;;;;;9.27;2.03;;;4.10;99.90;;;4.53;100.00;99908.53;5018254;28;20477;-73
2022/01/28 10:33:15;;;;;;;4.27;1.70;;;4.10;99.90;;;4.61;100.00;99910.63;5019008;28;20930;-73
2022/01/28 10:35:56;;;;;;;10.93;1.80;;;4.10;99.90;;;4.67;100.00;99910.19;5018882;28;20502;-73
2022/01/28 10:38:31;;;;;;;16.43;2.73;;;4.20;99.90;;;4.72;100.00;99908.94;5018687;28;20594;-73
2022/01/28 10:41:14;;;;;;;8.03;1.60;;;4.30;99.90;;;4.75;100.00;99906.16;5018967;28;20855;-72
2022/01/28 10:43:51;;;;;;;6.70;2.50;;;4.30;99.90;;;4.81;100.00;99904.91;5017000;28;20459;-73
2022/01/28 10:46:27;;;;;;;4.57;1.50;;;4.30;99.90;;;4.88;100.00;99904.38;5018755;28;20989;-73
2022/01/28 10:49:01;;;;;;;9.27;2.40;;;4.40;99.90;;;4.89;100.00;99908.63;5014735;28;20569;-73
2022/01/28 10:51:47;;;;;;;3.43;2.57;;;4.40;99.90;;;4.93;100.00;99904.88;5018679;28;20520;-73
2022/01/28 10:54:21;;;;;;;6.70;2.13;;;4.40;99.90;;;4.98;100.00;99904.56;5018036;28;20524;-73
2022/01/28 10:56:57;;;;;;;5.63;1.70;;;4.40;99.90;;;4.99;100.00;99906.25;5018463;28;20493;-73
2022/01/28 10:59:30;;;;;;;6.43;2.03;;;4.50;99.90;;;4.98;100.00;99899.38;5017393;28;20492;-73
2022/01/28 11:02:01;;;;;;;7.13;2.20;;;4.50;99.90;;;4.98;100.00;99894.19;5018194;28;20457;-73
2022/01/28 11:04:33;;;;;;;6.00;2.10;;;4.60;99.90;;;5.00;100.00;99897.50;5017100;28;20469;-73
2022/01/28 11:07:07;;;;;;;8.63;2.63;;;4.50;99.90;;;5.02;100.00;99906.84;5019461;28;20442;-73
2022/01/28 11:09:41;;;;;;;7.13;2.53;;;4.60;99.90;;;5.03;100.00;99908.50;5017877;28;20442;-73
2022/01/28 11:12:13;;;;;;;7.93;2.83;;;4.60;99.90;;;5.08;100.00;99905.59;5018715;28;20557;-73
2022/01/28 11:14:44;;;;;;;3.53;2.23;;;4.60;99.90;;;5.14;100.00;99901.75;5018667;28;20505;-73
2022/01/28 11:17:18;;;;;;;9.40;3.10;;;4.60;99.90;;;5.15;100.00;99904.22;5019073;28;20536;-73
2022/01/28 11:19:50;;;;;;;9.17;2.90;;;4.70;99.90;;;5.16;100.00;99903.31;5017992;28;20488;-73
2022/01/28 11:22:46;;;;;;;5.73;2.57;;;4.60;99.90;;;5.19;100.00;99903.09;5020690;28;20450;-73
2022/01/28 11:25:38;;;;;;;4.13;2.30;;;4.70;99.90;;;5.20;100.00;99904.75;5017703;28;20490;-73
2022/01/28 11:28:09;;;;;;;7.33;2.77;;;4.70;99.90;;;5.25;100.00;99899.22;5018461;28;20462;-73
2022/01/28 11:30:47;;;;;;;6.80;2.60;;;4.80;99.90;;;5.29;100.00;99888.53;5019429;28;20485;-73
2022/01/28 11:33:19;;;;;;;6.70;3.03;;;4.80;99.90;;;5.39;100.00;99899.91;5018870;28;20504;-73